createdAt,value
2022-11-17T00:02:14.202Z,30.80
2022-11-17T00:04:47.581Z,31.60
2022-11-17T00:07:20.414Z,31.93
2022-11-17T00:09:53.285Z,32.23
2022-11-17T00:12:44.116Z,30.48
2022-11-17T00:15:18.534Z,30.30
2022-11-17T00:17:54.045Z,30.82
2022-11-17T00:20:44.721Z,32.10
2022-11-17T00:23:17.548Z,29.85
2022-11-17T00:25:50.518Z,28.65
2022-11-17T00:28:23.221Z,30.25
2022-11-17T00:31:34.453Z,31.20
2022-11-17T00:34:07.587Z,30.82
2022-11-17T00:36:50.550Z,29.12
2022-11-17T00:39:24.683Z,29.27
2022-11-17T00:44:30.287Z,28.42
2022-11-17T00:47:03.134Z,27.35
2022-11-17T00:49:37.724Z,25.95
2022-11-17T00:52:12.722Z,29.98
2022-11-17T00:54:45.580Z,28.57
2022-11-17T00:57:18.994Z,28.98
2022-11-17T00:59:52.664Z,29.90
2022-11-17T01:02:25.639Z,25.95
2022-11-17T01:04:58.523Z,26.10
2022-11-17T01:07:31.446Z,27.20
2022-11-17T01:10:05.167Z,24.60
2022-11-17T01:12:38.148Z,26.97
2022-11-17T01:15:12.206Z,26.60
2022-11-17T01:17:45.113Z,26.10
2022-11-17T01:20:18.235Z,26.12
2022-11-17T01:22:52.340Z,25.65
2022-11-17T01:25:25.250Z,26.48
2022-11-17T01:27:58.219Z,26.23
2022-11-17T01:30:31.699Z,25.37
2022-11-17T01:33:04.692Z,26.00
2022-11-17T01:35:38.151Z,26.70
2022-11-17T01:38:11.395Z,25.50
2022-11-17T01:40:44.466Z,26.95
2022-11-17T01:43:17.650Z,24.52
2022-11-17T01:45:50.916Z,24.60
2022-11-17T01:48:24.606Z,25.05
2022-11-17T01:50:57.378Z,24.12
2022-11-17T01:53:31.685Z,24.05
2022-11-17T01:58:47.239Z,22.22
2022-11-17T02:01:20.240Z,22.85
2022-11-17T02:06:33.538Z,21.00
2022-11-17T02:09:06.547Z,21.55
2022-11-17T02:11:39.819Z,24.67
2022-11-17T02:14:13.804Z,27.67
2022-11-17T02:16:46.992Z,23.62
2022-11-17T02:19:20.169Z,20.82
2022-11-17T02:22:38.293Z,23.18
2022-11-17T02:25:36.496Z,21.27
2022-11-17T02:28:16.840Z,22.02
2022-11-17T02:31:07.143Z,21.70
2022-11-17T02:34:06.215Z,21.55
2022-11-17T02:36:49.359Z,18.42
2022-11-17T02:39:29.213Z,17.05
2022-11-17T02:42:11.072Z,22.13
2022-11-17T02:45:03.046Z,20.37
2022-11-17T02:47:37.461Z,19.98
2022-11-17T02:50:12.847Z,16.75
2022-11-17T02:52:45.668Z,15.25
2022-11-17T02:55:18.328Z,16.12
2022-11-17T02:57:52.321Z,14.13
2022-11-17T03:00:25.594Z,15.40
2022-11-17T03:03:37.210Z,15.28
2022-11-17T03:06:32.587Z,14.95
2022-11-17T03:09:22.576Z,15.40
2022-11-17T03:12:12.108Z,15.75
2022-11-17T03:15:09.067Z,15.53
2022-11-17T03:18:22.502Z,15.13
2022-11-17T03:21:00.668Z,15.10
2022-11-17T03:23:44.082Z,15.32
2022-11-17T03:26:22.034Z,14.47
2022-11-17T03:28:57.036Z,14.07
2022-11-17T03:31:30.575Z,13.18
2022-11-17T03:34:06.747Z,13.05
2022-11-17T03:36:43.613Z,11.85
2022-11-17T03:39:27.196Z,11.85
2022-11-17T03:42:10.100Z,11.45
2022-11-17T03:44:46.734Z,11.48
2022-11-17T03:47:22.284Z,12.60
2022-11-17T03:50:11.166Z,11.43
2022-11-17T03:52:44.983Z,12.37
2022-11-17T03:55:18.247Z,10.77
2022-11-17T03:58:04.880Z,9.43
2022-11-17T04:00:39.181Z,8.60
2022-11-17T04:03:12.161Z,8.13
2022-11-17T04:05:46.975Z,8.00
2022-11-17T04:08:22.212Z,7.95
2022-11-17T04:11:12.772Z,8.35
2022-11-17T04:14:04.858Z,8.35
2022-11-17T04:16:37.809Z,8.03
2022-11-17T04:19:11.268Z,7.63
2022-11-17T04:21:44.808Z,7.87
2022-11-17T04:24:18.666Z,8.10
2022-11-17T04:29:41.629Z,7.72
2022-11-17T04:32:15.088Z,7.83
2022-11-17T04:34:48.541Z,8.98
2022-11-17T04:37:21.316Z,7.22
2022-11-17T04:39:54.620Z,7.72
2022-11-17T04:42:27.367Z,8.40
2022-11-17T04:45:00.275Z,8.28
2022-11-17T04:47:33.721Z,8.87
2022-11-17T04:50:08.082Z,8.70
2022-11-17T04:52:41.225Z,8.00
2022-11-17T04:55:15.171Z,9.18
2022-11-17T04:57:48.151Z,9.88
2022-11-17T05:00:21.434Z,9.98
2022-11-17T05:02:54.563Z,10.82
2022-11-17T05:05:28.019Z,11.60
2022-11-17T05:08:01.661Z,10.75
2022-11-17T05:10:52.807Z,11.87
2022-11-17T05:13:26.511Z,11.93
2022-11-17T05:16:18.035Z,12.18
2022-11-17T05:18:51.143Z,13.70
2022-11-17T05:21:24.383Z,14.68
2022-11-17T05:23:57.934Z,14.53
2022-11-17T05:26:34.303Z,16.32
2022-11-17T05:29:10.005Z,17.42
2022-11-17T05:31:43.367Z,17.95
2022-11-17T05:34:21.150Z,18.20
2022-11-17T05:36:54.660Z,17.73
2022-11-17T05:39:27.743Z,18.43
2022-11-17T05:42:00.855Z,18.62
2022-11-17T05:44:34.262Z,19.50
2022-11-17T05:47:07.374Z,19.07
2022-11-17T05:49:41.699Z,19.12
2022-11-17T05:52:14.790Z,19.12
2022-11-17T05:54:48.028Z,18.87
2022-11-17T05:57:26.004Z,18.20
2022-11-17T06:00:04.799Z,19.35
2022-11-17T06:02:46.473Z,21.55
2022-11-17T06:05:20.542Z,19.50
2022-11-17T06:07:56.247Z,19.20
2022-11-17T06:10:29.812Z,16.77
2022-11-17T06:13:03.799Z,19.40
2022-11-17T06:15:37.530Z,19.62
2022-11-17T06:20:49.348Z,20.72
2022-11-17T06:23:24.351Z,21.02
2022-11-17T06:25:57.262Z,22.77
2022-11-17T06:28:31.492Z,21.33
2022-11-17T06:31:04.745Z,23.00
2022-11-17T06:33:39.437Z,23.05
2022-11-17T06:38:44.986Z,22.85
2022-11-17T06:41:18.044Z,23.50
2022-11-17T06:43:50.931Z,23.30
2022-11-17T06:46:23.708Z,23.40
2022-11-17T06:48:57.646Z,24.55
2022-11-17T06:51:30.578Z,24.77
2022-11-17T06:54:05.649Z,26.75
2022-11-17T06:56:38.969Z,25.35
2022-11-17T06:59:12.031Z,24.65
2022-11-17T07:01:45.522Z,23.15
2022-11-17T07:04:18.675Z,24.12
2022-11-17T07:06:52.357Z,24.02
2022-11-17T07:09:26.543Z,23.50
2022-11-17T07:12:00.087Z,23.57
2022-11-17T07:14:33.892Z,22.48
2022-11-17T07:17:08.096Z,24.15
2022-11-17T07:19:41.048Z,23.27
2022-11-17T07:22:14.334Z,22.95
2022-11-17T07:24:47.582Z,23.25
2022-11-17T07:27:20.710Z,23.12
2022-11-17T07:29:53.651Z,24.12
2022-11-17T07:32:27.268Z,22.45
2022-11-17T07:35:02.303Z,22.80
2022-11-17T07:37:36.176Z,22.65
2022-11-17T07:40:10.990Z,22.58
2022-11-17T07:42:46.673Z,22.52
2022-11-17T07:45:19.564Z,21.85
2022-11-17T07:47:59.783Z,22.82
2022-11-17T07:50:33.508Z,23.00
2022-11-17T07:53:06.458Z,22.27
2022-11-17T07:55:39.825Z,21.42
2022-11-17T07:58:12.856Z,22.17
2022-11-17T08:00:46.101Z,21.95
2022-11-17T08:03:19.287Z,22.62
2022-11-17T08:05:53.819Z,23.20
2022-11-17T08:08:26.668Z,23.38
2022-11-17T08:11:06.356Z,22.27
2022-11-17T08:13:41.528Z,22.50
2022-11-17T08:16:15.255Z,23.15
2022-11-17T08:18:52.323Z,21.40
2022-11-17T08:21:23.981Z,22.42
2022-11-17T08:23:57.156Z,24.25
2022-11-17T08:26:30.175Z,23.25
2022-11-17T08:29:02.980Z,25.05
2022-11-17T08:31:36.618Z,25.93
2022-11-17T08:34:09.643Z,24.95
2022-11-17T08:36:42.803Z,22.95
2022-11-17T08:39:16.141Z,25.57
2022-11-17T08:41:49.212Z,23.52
2022-11-17T08:44:22.252Z,23.40
2022-11-17T08:46:55.392Z,22.27
2022-11-17T08:49:28.193Z,25.17
2022-11-17T08:52:01.304Z,24.12
2022-11-17T08:54:35.107Z,23.32
2022-11-17T08:57:08.105Z,24.20
2022-11-17T08:59:40.983Z,25.80
2022-11-17T09:02:15.206Z,24.67
2022-11-17T09:04:48.704Z,25.15
2022-11-17T09:07:22.396Z,27.60
2022-11-17T09:09:55.536Z,30.50
2022-11-17T09:12:28.992Z,29.75
2022-11-17T09:15:02.227Z,27.62
2022-11-17T09:17:36.230Z,25.92
2022-11-17T09:22:43.033Z,24.90
2022-11-17T09:25:17.201Z,25.62
2022-11-17T09:27:52.739Z,25.25
2022-11-17T09:30:26.191Z,24.80
2022-11-17T09:33:00.496Z,23.17
2022-11-17T09:35:33.490Z,23.40
2022-11-17T09:38:06.474Z,23.02
2022-11-17T09:40:41.695Z,25.15
2022-11-17T09:43:21.958Z,21.25
2022-11-17T09:46:01.903Z,21.70
2022-11-17T09:49:15.050Z,21.87
2022-11-17T09:51:49.768Z,21.45
2022-11-17T09:54:34.305Z,23.00
2022-11-17T09:57:08.861Z,23.42
2022-11-17T09:59:41.911Z,22.13
2022-11-17T10:02:14.768Z,23.35
2022-11-17T10:04:48.673Z,22.62
2022-11-17T10:07:22.477Z,20.05
2022-11-17T10:09:57.503Z,20.35
2022-11-17T10:12:39.030Z,18.17
2022-11-17T10:15:37.338Z,18.60
2022-11-17T10:18:19.181Z,18.15
2022-11-17T10:20:53.805Z,17.48
2022-11-17T10:23:30.002Z,19.35
2022-11-17T10:26:10.334Z,17.90
2022-11-17T10:28:43.795Z,18.62
2022-11-17T10:31:20.079Z,19.12
2022-11-17T10:33:53.503Z,17.67
2022-11-17T10:36:31.793Z,19.05
2022-11-17T10:39:04.946Z,18.27
2022-11-17T10:41:42.218Z,19.37
2022-11-17T10:44:30.296Z,19.52
2022-11-17T10:47:05.280Z,18.37
2022-11-17T10:49:40.157Z,18.10
2022-11-17T10:52:20.133Z,18.95
2022-11-17T10:54:53.566Z,18.48
2022-11-17T10:57:28.276Z,18.92
2022-11-17T11:00:01.414Z,17.87
2022-11-17T11:02:41.656Z,20.87
2022-11-17T11:05:21.489Z,18.15
2022-11-17T11:08:18.043Z,18.35
2022-11-17T11:10:54.006Z,19.82
2022-11-17T11:13:47.358Z,18.25
2022-11-17T11:16:20.530Z,18.70
2022-11-17T11:18:54.842Z,18.02
2022-11-17T11:21:56.196Z,16.42
2022-11-17T11:24:40.265Z,15.35
2022-11-17T11:27:32.793Z,16.17
2022-11-17T11:30:13.070Z,16.93
2022-11-17T11:33:14.798Z,15.50
2022-11-17T11:36:20.815Z,15.30
2022-11-17T11:39:16.466Z,15.20
2022-11-17T11:42:26.385Z,14.75
2022-11-17T11:45:16.015Z,14.70
2022-11-17T11:48:08.538Z,14.95
2022-11-17T11:51:22.141Z,12.53
2022-11-17T11:54:20.609Z,13.85
2022-11-17T11:56:53.919Z,13.90
2022-11-17T11:59:45.033Z,12.65
2022-11-17T12:02:28.698Z,12.28
2022-11-17T12:05:36.661Z,13.28
2022-11-17T12:08:20.859Z,12.18
2022-11-17T12:11:10.086Z,11.88
2022-11-17T12:13:48.462Z,11.73
2022-11-17T12:16:31.156Z,12.35
2022-11-17T12:19:06.677Z,12.07
2022-11-17T12:21:39.548Z,13.88
2022-11-17T12:24:22.270Z,14.85
2022-11-17T12:26:55.302Z,14.28
2022-11-17T12:29:32.058Z,12.93
2022-11-17T12:32:05.149Z,12.98
2022-11-17T12:34:39.674Z,13.55
2022-11-17T12:37:26.926Z,12.15
2022-11-17T12:40:10.575Z,12.05
2022-11-17T12:42:48.218Z,11.60
2022-11-17T12:45:21.391Z,11.40
2022-11-17T12:48:18.302Z,11.63
2022-11-17T12:50:39.206Z,11.22
2022-11-17T12:53:19.898Z,11.73
2022-11-17T12:56:01.226Z,10.60
2022-11-17T12:58:54.311Z,10.90
2022-11-17T13:02:05.902Z,12.37
2022-11-17T13:04:49.685Z,10.40
2022-11-17T13:07:27.805Z,10.98
2022-11-17T13:10:03.192Z,10.25
2022-11-17T13:12:37.523Z,11.25
2022-11-17T13:15:16.950Z,12.00
2022-11-17T13:17:52.554Z,12.28
2022-11-17T13:20:31.803Z,12.20
2022-11-17T13:23:09.280Z,16.95
2022-11-17T13:25:42.352Z,16.00
2022-11-17T13:28:33.008Z,16.00
2022-11-17T13:31:06.153Z,15.25
2022-11-17T13:33:40.824Z,14.28
2022-11-17T13:36:23.378Z,14.05
2022-11-17T13:38:59.234Z,13.78
2022-11-17T13:41:37.788Z,13.18
2022-11-17T13:44:20.011Z,12.98
2022-11-17T13:46:52.941Z,11.97
2022-11-17T13:49:38.685Z,12.10
2022-11-17T13:52:39.348Z,12.90
2022-11-17T13:55:13.269Z,14.38
2022-11-17T13:57:59.645Z,15.05
2022-11-17T14:00:33.896Z,14.83
2022-11-17T14:03:09.806Z,14.35
2022-11-17T14:05:48.177Z,12.82
2022-11-17T14:08:30.656Z,12.45
2022-11-17T14:11:15.636Z,12.73
2022-11-17T14:13:54.276Z,12.35
2022-11-17T14:16:32.244Z,12.78
2022-11-17T14:19:22.269Z,12.85
2022-11-17T14:22:05.408Z,13.60
2022-11-17T14:24:39.005Z,13.00
2022-11-17T14:27:35.230Z,13.55
2022-11-17T14:30:11.165Z,16.10
2022-11-17T14:32:44.658Z,15.15
2022-11-17T14:37:51.218Z,14.75
2022-11-17T14:40:24.222Z,13.98
2022-11-17T14:42:57.323Z,14.25
2022-11-17T14:45:31.148Z,13.95
2022-11-17T14:48:06.868Z,14.70
2022-11-17T14:50:40.616Z,13.32
2022-11-17T14:53:13.468Z,14.85
2022-11-17T14:55:47.972Z,15.58
2022-11-17T14:58:21.160Z,14.65
2022-11-17T15:00:54.509Z,14.45
2022-11-17T15:03:28.611Z,14.87
2022-11-17T15:06:03.385Z,14.80
2022-11-17T15:08:36.769Z,14.33
2022-11-17T15:11:09.603Z,13.32
2022-11-17T15:13:42.858Z,15.10
2022-11-17T15:16:16.043Z,15.83
2022-11-17T15:18:50.362Z,15.60
2022-11-17T15:21:23.376Z,17.45
2022-11-17T15:23:56.334Z,14.80
2022-11-17T15:26:29.219Z,15.48
2022-11-17T15:29:02.260Z,13.75
2022-11-17T15:31:35.640Z,12.93
2022-11-17T15:34:10.124Z,14.65
2022-11-17T15:39:15.508Z,24.50
2022-11-17T15:41:51.043Z,21.90
2022-11-17T15:44:24.840Z,24.82
2022-11-17T15:46:57.887Z,24.02
2022-11-17T15:49:30.754Z,19.80
2022-11-17T15:52:03.808Z,20.60
2022-11-17T15:54:37.462Z,20.62
2022-11-17T15:57:11.079Z,18.37
2022-11-17T15:59:44.481Z,18.40
2022-11-17T16:02:17.736Z,17.02
2022-11-17T16:04:50.957Z,17.17
2022-11-17T16:07:24.438Z,16.37
2022-11-17T16:09:57.604Z,15.32
2022-11-17T16:12:30.635Z,14.73
2022-11-17T16:15:05.506Z,16.13
2022-11-17T16:17:38.721Z,15.50
2022-11-17T16:20:13.337Z,15.90
2022-11-17T16:22:46.634Z,16.48
2022-11-17T16:25:19.387Z,15.63
2022-11-17T16:27:52.409Z,16.97
2022-11-17T16:30:34.221Z,17.67
2022-11-17T16:33:04.894Z,16.62
2022-11-17T16:35:38.942Z,17.65
2022-11-17T16:38:18.567Z,18.33
2022-11-17T16:40:51.627Z,16.25
2022-11-17T16:43:24.745Z,18.67
2022-11-17T16:45:58.150Z,22.10
2022-11-17T16:48:34.793Z,20.15
2022-11-17T16:51:09.478Z,22.90
2022-11-17T16:53:42.512Z,22.77
2022-11-17T16:56:15.723Z,26.50
2022-11-17T16:58:50.707Z,27.98
2022-11-17T17:01:26.755Z,40.83
2022-11-17T17:04:06.776Z,43.23
2022-11-17T17:06:46.310Z,36.88
2022-11-17T17:09:24.709Z,31.52
2022-11-17T17:11:54.179Z,28.73
2022-11-17T17:14:28.304Z,30.30
2022-11-17T17:17:01.896Z,24.40
2022-11-17T17:19:34.858Z,25.70
2022-11-17T17:22:08.130Z,24.75
2022-11-17T17:24:41.912Z,24.43
2022-11-17T17:27:14.867Z,22.45
2022-11-17T17:29:48.476Z,21.20
2022-11-17T17:32:21.383Z,20.50
2022-11-17T17:34:54.947Z,18.90
2022-11-17T17:37:27.910Z,17.85
2022-11-17T17:40:01.214Z,24.52
2022-11-17T17:42:34.505Z,25.60
2022-11-17T17:45:08.382Z,29.70
2022-11-17T17:47:42.341Z,30.32
2022-11-17T17:50:15.444Z,29.65
2022-11-17T17:52:48.840Z,22.52
2022-11-17T17:55:21.815Z,24.92
2022-11-17T17:57:55.045Z,21.07
2022-11-17T18:00:28.068Z,21.23
2022-11-17T18:03:02.770Z,28.98
2022-11-17T18:05:39.957Z,23.95
2022-11-17T18:08:13.394Z,19.57
2022-11-17T18:10:47.122Z,20.10
2022-11-17T18:13:21.059Z,20.95
2022-11-17T18:15:54.065Z,22.45
2022-11-17T18:18:27.059Z,19.75
2022-11-17T18:21:09.112Z,19.42
2022-11-17T18:23:43.222Z,19.23
2022-11-17T18:26:20.591Z,15.83
2022-11-17T18:28:57.640Z,14.23
2022-11-17T18:31:35.013Z,15.65
2022-11-17T18:34:19.089Z,17.17
2022-11-17T18:36:56.728Z,16.32
2022-11-17T18:39:31.811Z,14.35
2022-11-17T18:42:05.095Z,15.55
2022-11-17T18:44:39.482Z,14.28
2022-11-17T18:47:14.293Z,14.90
2022-11-17T18:49:47.678Z,19.05
2022-11-17T18:52:20.790Z,13.75
2022-11-17T18:54:54.091Z,13.80
2022-11-17T18:57:28.002Z,12.93
2022-11-17T19:00:00.718Z,11.20
2022-11-17T19:02:33.988Z,10.98
2022-11-17T19:05:07.695Z,9.70
2022-11-17T19:07:40.761Z,9.30
2022-11-17T19:10:13.868Z,9.68
2022-11-17T19:12:46.881Z,9.53
2022-11-17T19:15:20.063Z,9.30
2022-11-17T19:17:53.222Z,9.48
2022-11-17T19:20:27.425Z,10.30
2022-11-17T19:23:00.458Z,14.10
2022-11-17T19:25:36.042Z,12.23
2022-11-17T19:28:12.716Z,10.63
2022-11-17T19:30:46.202Z,10.30
2022-11-17T19:33:19.839Z,9.45
2022-11-17T19:35:52.643Z,10.60
2022-11-17T19:38:25.684Z,10.80
2022-11-17T19:41:05.478Z,10.40
2022-11-17T19:43:44.876Z,10.63
2022-11-17T19:46:17.032Z,9.20
2022-11-17T19:48:50.463Z,8.50
2022-11-17T19:51:29.474Z,9.05
2022-11-17T19:54:08.378Z,9.05
2022-11-17T19:56:41.373Z,8.50
2022-11-17T19:59:16.667Z,7.80
2022-11-17T20:01:49.066Z,7.17
2022-11-17T20:04:22.642Z,6.80
2022-11-17T20:06:55.785Z,8.25
2022-11-17T20:09:28.834Z,7.72
2022-11-17T20:12:01.809Z,8.28
2022-11-17T20:14:36.332Z,9.03
2022-11-17T20:17:09.832Z,8.48
2022-11-17T20:19:43.742Z,9.68
2022-11-17T20:22:17.930Z,11.25
2022-11-17T20:27:23.169Z,7.08
2022-11-17T20:29:56.094Z,10.58
2022-11-17T20:32:35.187Z,6.70
2022-11-17T20:35:08.792Z,8.50
2022-11-17T20:37:42.086Z,7.47
2022-11-17T20:40:15.508Z,6.40
2022-11-17T20:42:48.345Z,7.42
2022-11-17T20:45:21.263Z,7.60
2022-11-17T20:47:54.546Z,7.12
2022-11-17T20:50:27.363Z,8.63
2022-11-17T20:53:00.291Z,8.58
2022-11-17T20:55:33.199Z,8.13
2022-11-17T20:58:06.286Z,8.73
2022-11-17T21:00:39.749Z,8.73
2022-11-17T21:03:12.764Z,9.13
2022-11-17T21:05:46.032Z,9.67
2022-11-17T21:08:19.678Z,10.50
2022-11-17T21:11:00.694Z,10.30
2022-11-17T21:13:36.110Z,10.00
2022-11-17T21:16:16.964Z,10.93
2022-11-17T21:18:50.747Z,13.05
2022-11-17T21:21:23.859Z,12.18
2022-11-17T21:23:57.543Z,14.00
2022-11-17T21:26:30.793Z,13.60
2022-11-17T21:29:17.233Z,11.28
2022-11-17T21:31:40.030Z,11.78
2022-11-17T21:34:19.278Z,10.40
2022-11-17T21:36:52.152Z,12.18
2022-11-17T21:39:25.171Z,11.30
2022-11-17T21:41:58.439Z,12.15
2022-11-17T21:44:31.715Z,11.05
2022-11-17T21:47:04.923Z,12.20
2022-11-17T21:49:37.833Z,11.30
2022-11-17T21:52:11.731Z,11.03
2022-11-17T21:54:44.644Z,10.98
2022-11-17T21:57:18.270Z,11.80
2022-11-17T21:59:51.216Z,11.05
2022-11-17T22:02:24.118Z,11.38
2022-11-17T22:04:57.317Z,10.98
2022-11-17T22:07:30.953Z,10.03
2022-11-17T22:10:04.536Z,10.72
2022-11-17T22:12:37.577Z,11.20
2022-11-17T22:15:11.897Z,10.82
2022-11-17T22:17:45.184Z,11.18
2022-11-17T22:20:18.279Z,12.03
2022-11-17T22:22:53.626Z,11.80
2022-11-17T22:28:02.255Z,11.45
2022-11-17T22:30:35.539Z,10.17
2022-11-17T22:33:08.699Z,11.57
2022-11-17T22:35:42.172Z,12.40
2022-11-17T22:38:16.340Z,11.40
2022-11-17T22:40:49.222Z,11.38
2022-11-17T22:43:22.176Z,11.63
2022-11-17T22:45:54.936Z,11.78
2022-11-17T22:48:28.359Z,11.97
2022-11-17T22:51:01.836Z,11.05
2022-11-17T22:53:35.537Z,9.03
2022-11-17T22:56:10.338Z,10.43
2022-11-17T22:58:46.684Z,8.80
2022-11-17T23:01:17.803Z,9.45
2022-11-17T23:03:50.828Z,8.15
2022-11-17T23:06:24.543Z,8.78
2022-11-17T23:08:59.756Z,8.45
2022-11-17T23:11:37.450Z,8.55
2022-11-17T23:14:09.167Z,7.72
2022-11-17T23:16:43.224Z,8.08
2022-11-17T23:19:16.678Z,7.00
2022-11-17T23:21:50.201Z,7.78
2022-11-17T23:24:23.269Z,5.35
2022-11-17T23:26:56.058Z,5.47
2022-11-17T23:29:30.410Z,5.70
2022-11-17T23:32:03.359Z,5.65
2022-11-17T23:34:37.475Z,9.83
2022-11-17T23:37:10.401Z,6.70
2022-11-17T23:39:43.529Z,5.17
2022-11-17T23:42:16.347Z,4.87
2022-11-17T23:44:49.056Z,3.98
2022-11-17T23:47:21.802Z,3.98
2022-11-17T23:49:54.660Z,4.05
2022-11-17T23:52:27.672Z,4.03
2022-11-17T23:55:00.566Z,3.35
2022-11-17T23:57:33.406Z,2.98
